CMB824 Details

Departure: RAF Ascension Island (FHAW)
Arrival: Grantley Adams International Airport (TBPB)
Route: EGUPA 0030W 0440N 0850N DOLRO UM791 BGI
Notes: USTRANSCOM CONTRACT FLIGHT | PAYLOAD RESTRICTED | ETOPS


Current Weather Information
FHAW 200750Z 13013KT 9999 FEW018 27/23 Q1012 BLU NOSIG
TBPB 200900Z 08016KT 9999 FEW020 25/19 Q1013 NOSIG